createdAt,value
2022-11-09T00:01:05.336Z,35.58
2022-11-09T00:03:32.675Z,38.65
2022-11-09T00:06:00.597Z,38.33
2022-11-09T00:08:29.089Z,40.38
2022-11-09T00:10:56.017Z,36.88
2022-11-09T00:13:23.238Z,41.10
2022-11-09T00:15:50.447Z,41.58
2022-11-09T00:18:17.305Z,38.15
2022-11-09T00:20:47.692Z,38.72
2022-11-09T00:23:18.650Z,43.13
2022-11-09T00:25:46.276Z,35.78
2022-11-09T00:28:13.878Z,37.50
2022-11-09T00:30:41.883Z,37.72
2022-11-09T00:33:11.203Z,36.58
2022-11-09T00:35:39.207Z,32.95
2022-11-09T00:38:06.456Z,34.40
2022-11-09T00:40:33.557Z,35.80
2022-11-09T00:43:00.521Z,36.80
2022-11-09T00:45:27.371Z,31.85
2022-11-09T00:47:54.597Z,34.20
2022-11-09T00:50:36.671Z,30.05
2022-11-09T00:53:03.759Z,31.25
2022-11-09T00:55:30.755Z,28.48
2022-11-09T00:57:57.818Z,24.77
2022-11-09T01:00:24.807Z,27.75
2022-11-09T01:02:53.703Z,25.67
2022-11-09T01:05:20.734Z,21.33
2022-11-09T01:07:49.197Z,20.77
2022-11-09T01:10:16.239Z,22.33
2022-11-09T01:12:43.532Z,25.75
2022-11-09T01:15:10.977Z,24.48
2022-11-09T01:17:37.863Z,23.90
2022-11-09T01:20:05.405Z,20.48
2022-11-09T01:22:32.239Z,22.67
2022-11-09T01:24:59.207Z,23.08
2022-11-09T01:27:26.207Z,20.95
2022-11-09T01:29:53.143Z,24.55
2022-11-09T01:32:20.086Z,23.13
2022-11-09T01:34:46.941Z,26.40
2022-11-09T01:37:14.237Z,25.35
2022-11-09T01:39:41.112Z,22.83
2022-11-09T01:42:08.007Z,23.67
2022-11-09T01:44:38.647Z,18.23
2022-11-09T01:47:23.637Z,17.00
2022-11-09T01:50:00.268Z,18.15
2022-11-09T01:52:41.592Z,18.30
2022-11-09T01:55:15.436Z,16.10
2022-11-09T01:57:51.743Z,23.20
2022-11-09T02:00:19.241Z,15.27
2022-11-09T02:03:09.656Z,21.67
2022-11-09T02:05:39.924Z,20.70
2022-11-09T02:08:08.145Z,16.17
2022-11-09T02:10:57.555Z,17.77
2022-11-09T02:13:27.069Z,20.17
2022-11-09T02:15:54.513Z,17.83
2022-11-09T02:18:22.067Z,22.40
2022-11-09T02:20:54.886Z,19.45
2022-11-09T02:26:08.311Z,18.65
2022-11-09T02:28:38.944Z,20.52
2022-11-09T02:31:11.741Z,17.95
2022-11-09T02:34:05.399Z,17.10
2022-11-09T02:36:33.618Z,15.93
2022-11-09T02:39:02.771Z,20.67
2022-11-09T02:41:32.179Z,17.88
2022-11-09T02:44:01.582Z,18.48
2022-11-09T02:46:35.622Z,17.20
2022-11-09T02:49:03.790Z,17.08
2022-11-09T02:51:31.059Z,17.17
2022-11-09T02:53:57.990Z,18.40
2022-11-09T02:56:24.978Z,18.88
2022-11-09T02:58:52.624Z,18.73
2022-11-09T03:01:19.646Z,18.50
2022-11-09T03:03:47.074Z,19.42
2022-11-09T03:06:13.997Z,17.35
2022-11-09T03:08:44.244Z,16.42
2022-11-09T03:11:11.354Z,18.25
2022-11-09T03:13:38.272Z,20.02
2022-11-09T03:16:09.631Z,20.70
2022-11-09T03:18:39.363Z,16.80
2022-11-09T03:21:07.424Z,20.08
2022-11-09T03:23:34.726Z,19.70
2022-11-09T03:26:03.603Z,19.33
2022-11-09T03:28:30.668Z,19.48
2022-11-09T03:30:58.314Z,18.38
2022-11-09T03:33:26.443Z,17.92
2022-11-09T03:35:53.487Z,23.80
2022-11-09T03:38:20.432Z,20.80
2022-11-09T03:40:48.721Z,21.52
2022-11-09T03:43:15.674Z,19.75
2022-11-09T03:45:43.017Z,20.55
2022-11-09T03:48:09.933Z,22.67
2022-11-09T03:50:40.364Z,19.40
2022-11-09T03:53:11.284Z,23.77
2022-11-09T03:55:39.632Z,26.40
2022-11-09T03:58:09.213Z,23.73
2022-11-09T04:00:36.294Z,25.63
2022-11-09T04:03:03.258Z,21.80
2022-11-09T04:05:30.370Z,22.35
2022-11-09T04:07:58.966Z,24.20
2022-11-09T04:10:27.144Z,22.73
2022-11-09T04:12:54.547Z,26.92
2022-11-09T04:15:21.961Z,28.98
2022-11-09T04:18:01.048Z,25.52
2022-11-09T04:20:30.952Z,23.20
2022-11-09T04:23:04.351Z,25.15
2022-11-09T04:25:37.454Z,23.05
2022-11-09T04:28:07.253Z,30.52
2022-11-09T04:30:37.082Z,23.10
2022-11-09T04:33:04.898Z,26.90
2022-11-09T04:35:34.192Z,25.98
2022-11-09T04:38:07.358Z,25.65
2022-11-09T04:40:35.859Z,29.55
2022-11-09T04:43:06.191Z,28.92
2022-11-09T04:45:34.774Z,32.38
2022-11-09T04:48:05.894Z,28.90
2022-11-09T04:50:34.063Z,30.55
2022-11-09T04:53:10.278Z,33.40
2022-11-09T04:55:38.501Z,32.80
2022-11-09T04:58:06.330Z,32.80
2022-11-09T05:00:34.147Z,30.98
2022-11-09T05:03:06.419Z,31.20
2022-11-09T05:05:36.638Z,31.98
2022-11-09T05:08:04.941Z,27.25
2022-11-09T05:10:32.781Z,33.30
2022-11-09T05:13:06.900Z,29.27
2022-11-09T05:18:02.406Z,30.30
2022-11-09T05:20:31.174Z,31.17
2022-11-09T05:23:18.429Z,34.83
2022-11-09T05:25:46.613Z,30.65
2022-11-09T05:28:13.987Z,33.55
2022-11-09T05:30:41.175Z,31.48
2022-11-09T05:33:08.656Z,39.83
2022-11-09T05:35:35.573Z,37.80
2022-11-09T05:38:02.416Z,31.90
2022-11-09T05:40:31.074Z,34.70
2022-11-09T05:42:58.581Z,30.73
2022-11-09T05:45:43.057Z,34.85
2022-11-09T05:48:12.846Z,29.23
2022-11-09T05:50:41.340Z,32.30
2022-11-09T05:53:27.350Z,30.48
2022-11-09T05:55:54.434Z,29.23
2022-11-09T05:58:21.674Z,27.13
2022-11-09T06:00:48.889Z,30.02
2022-11-09T06:03:15.820Z,31.35
2022-11-09T06:05:42.739Z,36.03
2022-11-09T06:08:13.269Z,30.73
2022-11-09T06:10:41.972Z,30.15
2022-11-09T06:13:10.560Z,28.85
2022-11-09T06:15:37.606Z,29.73
2022-11-09T06:18:04.766Z,30.27
2022-11-09T06:20:33.283Z,28.17
2022-11-09T06:23:03.746Z,31.38
2022-11-09T06:25:33.402Z,29.02
2022-11-09T06:28:01.368Z,30.67
2022-11-09T06:30:28.432Z,34.55
2022-11-09T06:33:02.757Z,29.20
2022-11-09T06:35:30.204Z,27.88
2022-11-09T06:38:00.963Z,27.80
2022-11-09T06:40:28.896Z,26.55
2022-11-09T06:43:00.505Z,32.75
2022-11-09T06:45:29.518Z,30.40
2022-11-09T06:48:03.546Z,30.17
2022-11-09T06:50:33.601Z,29.33
2022-11-09T06:53:04.943Z,32.25
2022-11-09T06:55:34.554Z,29.92
2022-11-09T06:58:10.164Z,32.55
2022-11-09T07:00:37.890Z,30.73
2022-11-09T07:03:05.446Z,29.60
2022-11-09T07:05:32.522Z,29.23
2022-11-09T07:07:59.434Z,30.70
2022-11-09T07:10:26.326Z,35.90
2022-11-09T07:12:53.761Z,34.22
2022-11-09T07:15:20.878Z,35.53
2022-11-09T07:17:47.823Z,33.42
2022-11-09T07:20:16.671Z,33.00
2022-11-09T07:22:44.437Z,34.67
2022-11-09T07:25:12.805Z,33.00
2022-11-09T07:27:39.687Z,38.92
2022-11-09T07:30:07.610Z,34.80
2022-11-09T07:33:07.016Z,38.13
2022-11-09T07:35:23.372Z,35.63
2022-11-09T07:37:50.517Z,36.03
2022-11-09T07:40:20.943Z,37.90
2022-11-09T07:42:49.556Z,35.13
2022-11-09T07:45:17.428Z,41.53
2022-11-09T07:47:46.158Z,37.72
2022-11-09T07:50:16.837Z,40.97
2022-11-09T07:52:43.743Z,42.25
2022-11-09T07:55:10.745Z,45.25
2022-11-09T07:57:37.938Z,43.17
2022-11-09T08:00:05.456Z,43.90
2022-11-09T08:02:38.457Z,35.15
2022-11-09T08:05:06.633Z,38.38
2022-11-09T08:07:34.394Z,45.20
2022-11-09T08:10:01.362Z,42.58
2022-11-09T08:12:31.668Z,51.33
2022-11-09T08:15:01.231Z,45.17
2022-11-09T08:17:28.200Z,47.13
2022-11-09T08:19:55.072Z,47.28
2022-11-09T08:22:22.513Z,44.78
2022-11-09T08:24:49.519Z,41.63
2022-11-09T08:27:16.777Z,48.33
2022-11-09T08:29:43.966Z,43.03
2022-11-09T08:32:10.931Z,42.13
2022-11-09T08:34:38.260Z,43.83
2022-11-09T08:37:05.815Z,43.25
2022-11-09T08:39:32.996Z,50.38
2022-11-09T08:42:00.004Z,48.88
2022-11-09T08:44:26.995Z,57.67
2022-11-09T08:46:54.182Z,54.75
2022-11-09T08:49:21.238Z,48.03
2022-11-09T08:51:48.166Z,50.53
2022-11-09T08:54:15.212Z,50.65
2022-11-09T08:56:42.117Z,54.90
2022-11-09T08:59:09.362Z,49.15
2022-11-09T09:01:36.326Z,47.40
2022-11-09T09:04:03.342Z,46.63
2022-11-09T09:06:31.444Z,43.45
2022-11-09T09:08:58.641Z,45.17
2022-11-09T09:11:25.575Z,45.28
2022-11-09T09:13:52.519Z,42.40
2022-11-09T09:16:19.467Z,42.42
2022-11-09T09:18:49.097Z,49.47
2022-11-09T09:21:16.893Z,55.55
2022-11-09T09:23:43.968Z,45.47
2022-11-09T09:26:10.865Z,46.92
2022-11-09T09:28:38.926Z,48.97
2022-11-09T09:31:06.076Z,47.60
2022-11-09T09:33:33.093Z,47.33
2022-11-09T09:36:03.539Z,47.53
2022-11-09T09:38:30.694Z,38.72
2022-11-09T09:40:59.626Z,35.58
2022-11-09T09:43:43.489Z,31.33
2022-11-09T09:46:36.130Z,30.02
2022-11-09T09:49:09.683Z,23.08
2022-11-09T09:51:45.767Z,26.00
2022-11-09T09:54:28.918Z,26.40
2022-11-09T09:57:00.377Z,31.75
2022-11-09T09:59:41.398Z,26.00
2022-11-09T10:02:26.008Z,28.27
2022-11-09T10:04:57.733Z,32.70
2022-11-09T10:07:39.842Z,29.45
2022-11-09T10:10:12.519Z,33.38
2022-11-09T10:13:06.569Z,31.45
2022-11-09T10:16:01.383Z,30.88
2022-11-09T10:21:21.655Z,28.08
2022-11-09T10:24:25.499Z,32.00
2022-11-09T10:26:56.305Z,31.75
2022-11-09T10:29:46.672Z,31.98
2022-11-09T10:32:20.674Z,31.02
2022-11-09T10:35:16.560Z,29.15
2022-11-09T10:37:48.294Z,31.75
2022-11-09T10:40:35.239Z,31.23
2022-11-09T10:43:21.074Z,27.77
2022-11-09T10:46:08.621Z,28.77
2022-11-09T10:48:56.222Z,30.42
2022-11-09T10:51:48.176Z,30.17
2022-11-09T10:54:37.980Z,35.85
2022-11-09T10:57:25.710Z,35.97
2022-11-09T11:00:17.773Z,28.30
2022-11-09T11:03:18.255Z,32.83
2022-11-09T11:06:15.864Z,32.15
2022-11-09T11:09:01.292Z,32.92
2022-11-09T11:11:47.141Z,30.17
2022-11-09T11:14:36.461Z,30.25
2022-11-09T11:17:29.676Z,29.42
2022-11-09T11:20:35.846Z,29.20
2022-11-09T11:23:26.699Z,33.03
2022-11-09T11:26:57.360Z,34.83
2022-11-09T11:30:04.236Z,32.03
2022-11-09T11:32:50.946Z,31.45
2022-11-09T11:35:50.746Z,31.35
2022-11-09T11:39:21.986Z,28.52
2022-11-09T11:42:49.159Z,26.75
2022-11-09T11:46:18.225Z,26.23
2022-11-09T11:49:28.373Z,30.00
2022-11-09T11:52:35.659Z,25.85
2022-11-09T11:55:50.039Z,26.35
2022-11-09T11:59:10.461Z,30.35
2022-11-09T12:02:52.413Z,30.08
2022-11-09T12:06:08.496Z,29.27
2022-11-09T12:09:28.179Z,27.50
2022-11-09T12:12:59.918Z,25.90
2022-11-09T12:16:17.542Z,28.73
2022-11-09T12:19:35.408Z,28.52
2022-11-09T12:22:57.528Z,28.90
2022-11-09T12:26:26.080Z,29.10
2022-11-09T12:29:32.576Z,27.23
2022-11-09T12:33:02.898Z,27.73
2022-11-09T12:35:56.558Z,29.02
2022-11-09T12:39:10.618Z,28.17
2022-11-09T12:42:04.716Z,29.42
2022-11-09T12:45:36.239Z,25.60
2022-11-09T12:48:35.310Z,25.95
2022-11-09T12:51:21.389Z,32.28
2022-11-09T12:54:12.768Z,34.50
2022-11-09T12:57:09.139Z,43.17
2022-11-09T12:59:58.209Z,48.25
2022-11-09T13:03:01.197Z,50.97
2022-11-09T13:05:48.661Z,51.72
2022-11-09T13:08:34.337Z,54.97
2022-11-09T13:11:42.149Z,56.80
2022-11-09T13:14:35.211Z,51.72
2022-11-09T13:17:24.251Z,56.78
2022-11-09T13:20:54.505Z,56.75
2022-11-09T13:26:47.303Z,57.05
2022-11-09T13:29:39.007Z,56.47
2022-11-09T13:32:29.481Z,49.53
2022-11-09T13:35:40.002Z,50.72
2022-11-09T13:38:27.533Z,49.05
2022-11-09T13:41:34.251Z,53.35
2022-11-09T13:44:32.673Z,51.55
2022-11-09T13:47:34.762Z,53.90
2022-11-09T13:50:26.943Z,50.83
2022-11-09T13:53:36.443Z,50.95
2022-11-09T13:56:32.155Z,53.85
2022-11-09T13:59:30.137Z,48.38
2022-11-09T14:02:26.265Z,54.42
2022-11-09T14:08:40.192Z,56.00
2022-11-09T14:11:31.638Z,49.80
2022-11-09T14:14:45.668Z,54.35
2022-11-09T14:18:03.418Z,50.75
2022-11-09T14:21:12.535Z,47.13
2022-11-09T14:24:09.212Z,53.17
2022-11-09T14:27:10.824Z,56.63
2022-11-09T14:30:01.138Z,53.50
2022-11-09T14:32:54.324Z,53.80
2022-11-09T14:35:39.941Z,53.17
2022-11-09T14:38:28.805Z,47.70
2022-11-09T14:41:26.932Z,48.35
2022-11-09T14:44:35.884Z,51.63
2022-11-09T14:47:39.567Z,44.67
2022-11-09T14:50:29.662Z,44.40
2022-11-09T14:53:35.586Z,41.30
2022-11-09T14:56:22.694Z,45.67
2022-11-09T14:59:15.450Z,42.95
2022-11-09T15:02:10.217Z,45.20
2022-11-09T15:07:48.115Z,41.15
2022-11-09T15:10:34.724Z,40.10
2022-11-09T15:13:35.364Z,40.33
2022-11-09T15:16:30.008Z,36.92
2022-11-09T15:19:33.191Z,41.78
2022-11-09T15:22:37.464Z,38.08
2022-11-09T15:25:30.417Z,38.83
2022-11-09T15:28:26.302Z,38.72
2022-11-09T15:31:16.356Z,42.38
2022-11-09T15:34:02.317Z,46.20
2022-11-09T15:36:54.837Z,40.25
2022-11-09T15:39:40.419Z,39.55
2022-11-09T15:42:27.048Z,44.05
2022-11-09T15:45:19.197Z,43.60
2022-11-09T15:48:05.123Z,42.13
2022-11-09T15:50:50.761Z,41.45
2022-11-09T15:53:36.774Z,42.97
2022-11-09T15:56:24.462Z,44.53
2022-11-09T15:59:25.905Z,43.47
2022-11-09T16:02:12.184Z,42.95
2022-11-09T16:04:58.208Z,42.55
2022-11-09T16:07:54.576Z,43.00
2022-11-09T16:10:41.768Z,42.35
2022-11-09T16:13:27.642Z,43.70
2022-11-09T16:16:15.645Z,41.97
2022-11-09T16:19:01.557Z,40.75
2022-11-09T16:21:47.531Z,40.42
2022-11-09T16:24:33.938Z,41.55
2022-11-09T16:27:43.394Z,37.40
2022-11-09T16:30:25.636Z,37.45
2022-11-09T16:33:11.114Z,41.65
2022-11-09T16:36:00.619Z,43.55
2022-11-09T16:38:50.017Z,42.97
2022-11-09T16:41:40.775Z,41.08
2022-11-09T16:44:26.297Z,42.20
2022-11-09T16:47:16.541Z,64.10
2022-11-09T16:50:03.697Z,60.60
2022-11-09T16:52:53.263Z,39.17
2022-11-09T16:55:39.191Z,46.25
2022-11-09T16:58:25.107Z,39.20
2022-11-09T17:01:13.011Z,45.03
2022-11-09T17:03:59.779Z,36.40
2022-11-09T17:06:45.360Z,34.33
2022-11-09T17:09:34.847Z,35.65
2022-11-09T17:12:20.403Z,40.85
2022-11-09T17:15:07.579Z,41.03
2022-11-09T17:17:53.083Z,40.08
2022-11-09T17:20:47.517Z,40.47
2022-11-09T17:23:33.904Z,35.75
2022-11-09T17:26:21.181Z,43.83
2022-11-09T17:29:07.001Z,38.42
2022-11-09T17:31:52.556Z,41.90
2022-11-09T17:34:38.134Z,38.08
2022-11-09T17:37:24.101Z,37.65
2022-11-09T17:40:10.889Z,39.55
2022-11-09T17:42:57.124Z,37.10
2022-11-09T17:45:43.055Z,37.60
2022-11-09T17:48:28.877Z,38.65
2022-11-09T17:51:17.835Z,35.58
2022-11-09T17:54:04.598Z,37.63
2022-11-09T17:56:51.581Z,34.55
2022-11-09T17:59:37.329Z,35.75
2022-11-09T18:02:22.902Z,37.60
2022-11-09T18:05:08.994Z,34.25
2022-11-09T18:07:54.308Z,33.85
2022-11-09T18:10:43.167Z,95.28
2022-11-09T18:13:28.606Z,40.72
2022-11-09T18:16:18.161Z,38.03
2022-11-09T18:19:05.104Z,34.42
2022-11-09T18:21:50.427Z,31.75
2022-11-09T18:24:36.573Z,36.60
2022-11-09T18:27:25.986Z,39.70
2022-11-09T18:30:16.699Z,39.78
2022-11-09T18:33:02.103Z,38.10
2022-11-09T18:36:05.185Z,37.03
2022-11-09T18:38:52.034Z,41.67
2022-11-09T18:41:37.413Z,38.40
2022-11-09T18:44:22.691Z,37.63
2022-11-09T18:47:09.710Z,39.33
2022-11-09T18:49:55.701Z,40.22
2022-11-09T18:52:41.044Z,40.42
2022-11-09T18:55:26.561Z,43.65
2022-11-09T18:58:13.037Z,44.67
2022-11-09T19:01:05.060Z,42.20
2022-11-09T19:03:56.351Z,43.35
2022-11-09T19:06:44.807Z,53.85
2022-11-09T19:09:35.256Z,45.58
2022-11-09T19:12:20.909Z,44.17
2022-11-09T19:15:07.164Z,47.60
2022-11-09T19:17:52.438Z,49.15
2022-11-09T19:20:39.099Z,56.15
2022-11-09T19:23:31.287Z,50.65
2022-11-09T19:26:21.193Z,50.45
2022-11-09T19:29:08.646Z,54.47
2022-11-09T19:31:55.020Z,45.42
2022-11-09T19:34:42.918Z,47.42
2022-11-09T19:37:28.935Z,48.15
2022-11-09T19:40:15.471Z,50.08
2022-11-09T19:43:00.913Z,52.28
2022-11-09T19:45:47.254Z,50.08
2022-11-09T19:48:35.087Z,56.95
2022-11-09T19:51:20.587Z,52.90
2022-11-09T19:54:06.834Z,53.85
2022-11-09T19:56:52.209Z,53.20
2022-11-09T19:59:38.120Z,58.05
2022-11-09T20:02:24.253Z,60.42
2022-11-09T20:05:09.841Z,57.95
2022-11-09T20:07:55.767Z,67.45
2022-11-09T20:10:40.810Z,60.58
2022-11-09T20:13:27.232Z,55.50
2022-11-09T20:16:12.598Z,54.80
2022-11-09T20:18:58.192Z,60.08
2022-11-09T20:21:45.129Z,73.20
2022-11-09T20:24:31.099Z,71.95
2022-11-09T20:27:16.867Z,67.70
2022-11-09T20:30:02.461Z,73.80
2022-11-09T20:32:47.902Z,63.20
2022-11-09T20:35:34.022Z,79.22
2022-11-09T20:38:20.051Z,74.05
2022-11-09T20:41:08.632Z,62.00
2022-11-09T20:43:54.651Z,65.32
2022-11-09T20:46:40.450Z,62.38
2022-11-09T20:49:26.027Z,59.35
2022-11-09T20:52:11.448Z,58.72
2022-11-09T20:54:56.867Z,55.42
2022-11-09T20:57:42.482Z,58.80
2022-11-09T21:00:28.614Z,61.88
2022-11-09T21:03:14.673Z,61.95
2022-11-09T21:06:03.785Z,70.07
2022-11-09T21:08:52.747Z,65.75
2022-11-09T21:12:00.754Z,64.72
2022-11-09T21:14:46.321Z,70.47
2022-11-09T21:17:32.418Z,64.35
2022-11-09T21:20:19.269Z,64.32
2022-11-09T21:23:13.694Z,62.55
2022-11-09T21:26:19.016Z,63.95
2022-11-09T21:29:25.375Z,67.10
2022-11-09T21:32:12.600Z,63.42
2022-11-09T21:34:58.350Z,66.85
2022-11-09T21:37:43.867Z,65.50
2022-11-09T21:40:29.518Z,73.22
2022-11-09T21:43:16.324Z,69.90
2022-11-09T21:46:02.618Z,62.38
2022-11-09T21:48:48.279Z,62.25
2022-11-09T21:51:35.621Z,65.20
2022-11-09T21:54:21.995Z,67.43
2022-11-09T21:57:07.515Z,71.18
2022-11-09T21:59:53.213Z,65.32
2022-11-09T22:02:38.369Z,64.53
2022-11-09T22:05:23.941Z,59.65
2022-11-09T22:08:09.503Z,67.60
2022-11-09T22:11:07.963Z,71.20
2022-11-09T22:14:11.949Z,71.38
2022-11-09T22:16:57.673Z,73.28
2022-11-09T22:20:01.259Z,73.57
2022-11-09T22:22:46.854Z,69.68
2022-11-09T22:25:32.268Z,71.25
2022-11-09T22:28:17.655Z,73.30
2022-11-09T22:31:05.312Z,69.55
2022-11-09T22:33:51.331Z,67.93
2022-11-09T22:36:36.879Z,78.18
2022-11-09T22:39:22.836Z,67.95
2022-11-09T22:42:08.980Z,74.47
2022-11-09T22:44:54.611Z,75.45
2022-11-09T22:47:40.349Z,79.15
2022-11-09T22:50:26.157Z,73.95
2022-11-09T22:53:11.644Z,71.53
2022-11-09T22:56:00.167Z,74.45
2022-11-09T22:58:46.224Z,79.20
2022-11-09T23:01:31.729Z,74.55
2022-11-09T23:04:17.232Z,79.70
2022-11-09T23:07:03.380Z,74.53
2022-11-09T23:09:49.129Z,84.10
2022-11-09T23:12:34.806Z,86.45
2022-11-09T23:15:20.538Z,80.78
2022-11-09T23:18:24.385Z,75.40
2022-11-09T23:21:10.984Z,78.38
2022-11-09T23:23:59.926Z,79.10
2022-11-09T23:26:45.429Z,79.45
2022-11-09T23:29:31.077Z,79.35
2022-11-09T23:32:16.766Z,81.00
2022-11-09T23:35:01.923Z,78.53
2022-11-09T23:37:47.643Z,81.43
2022-11-09T23:40:35.854Z,80.43
2022-11-09T23:43:21.704Z,79.47
2022-11-09T23:46:13.864Z,87.70
2022-11-09T23:48:59.464Z,78.57
2022-11-09T23:51:45.360Z,80.30
2022-11-09T23:54:30.971Z,81.50
2022-11-09T23:57:16.975Z,79.72
